Time;durP1;ratioP1;P1;durP2;ratioP2;P2;SDS_P1;SDS_P2;PMS_P1;PMS_P2;Temp;Humidity;BMP_temperature;BMP_pressure;BME280_temperature;BME280_humidity;BME280_pressure;Samples;Min_cycle;Max_cycle;Signal;HPM_P1;HPM_P2
2023/09/22 00:01:05;;;;;;;0.30;0.30;;;19.30;69.50;;;;;;5048102;28;20556;-72
2023/09/22 00:03:31;;;;;;;0.75;0.43;;;19.30;69.80;;;;;;5033798;28;20037;-73
2023/09/22 00:05:57;;;;;;;;;;;19.30;69.90;;;;;;5033427;28;20502;-72
2023/09/22 00:08:23;;;;;;;0.20;0.20;;;19.30;69.80;;;;;;5033333;28;19917;-72
2023/09/22 00:10:49;;;;;;;0.13;0.13;;;19.20;69.30;;;;;;5031146;28;20037;-72
2023/09/22 00:13:16;;;;;;;;;;;19.20;70.20;;;;;;5034208;28;20378;-72
2023/09/22 00:15:43;;;;;;;0.90;0.75;;;19.10;70.10;;;;;;5031653;28;19963;-72
2023/09/22 00:18:10;;;;;;;0.47;0.32;;;19.10;70.30;;;;;;5031985;28;20433;-72
2023/09/22 00:20:36;;;;;;;;;;;19.10;70.50;;;;;;5032649;28;20048;-71
2023/09/22 00:23:02;;;;;;;0.45;0.22;;;19.10;70.40;;;;;;5033201;28;19921;-72
2023/09/22 00:25:28;;;;;;;;;;;19.00;71.10;;;;;;5031975;28;20052;-72
2023/09/22 00:27:54;;;;;;;0.32;0.25;;;19.00;70.20;;;;;;5031853;28;19917;-72
2023/09/22 00:30:20;;;;;;;1.40;0.80;;;19.00;70.20;;;;;;5032001;28;20038;-71
2023/09/22 00:32:46;;;;;;;;;;;19.00;70.40;;;;;;5033646;28;20040;-72
2023/09/22 00:35:13;;;;;;;0.57;0.38;;;18.90;70.20;;;;;;5032445;28;19920;-71
2023/09/22 00:37:43;;;;;;;0.52;0.52;;;18.90;70.30;;;;;;5015551;28;20447;-71
2023/09/22 00:40:11;;;;;;;0.25;0.17;;;18.80;70.80;;;;;;5014620;28;20489;-71
2023/09/22 00:42:37;;;;;;;0.17;0.17;;;18.80;70.10;;;;;;5032832;28;20035;-72
2023/09/22 00:45:03;;;;;;;;;;;18.90;70.70;;;;;;5033182;28;20105;-71
2023/09/22 00:47:29;;;;;;;0.20;0.20;;;18.90;69.80;;;;;;5014708;28;19913;-72
2023/09/22 00:49:56;;;;;;;1.48;0.40;;;18.90;70.70;;;;;;5048169;28;20063;-72
2023/09/22 00:52:24;;;;;;;0.13;0.13;;;18.80;70.50;;;;;;5047288;28;20125;-71
2023/09/22 00:54:50;;;;;;;0.20;0.20;;;18.90;70.80;;;;;;5033181;28;20497;-72
2023/09/22 00:57:18;;;;;;;0.47;0.30;;;18.90;70.80;;;;;;5031120;28;20029;-72
2023/09/22 00:59:46;;;;;;;1.08;0.68;;;18.90;70.70;;;;;;5033101;28;20040;-72
2023/09/22 01:02:12;;;;;;;0.70;0.45;;;19.00;70.70;;;;;;5013894;28;20418;-71
2023/09/22 01:04:38;;;;;;;0.35;0.35;;;18.90;70.30;;;;;;5031483;28;20494;-71
2023/09/22 01:07:04;;;;;;;;;;;19.00;71.00;;;;;;5031572;28;20040;-71
2023/09/22 01:09:31;;;;;;;0.35;0.35;;;18.90;70.30;;;;;;5032917;28;19936;-72
2023/09/22 01:11:57;;;;;;;0.10;0.10;;;18.90;71.10;;;;;;5047116;28;20088;-71
2023/09/22 01:14:23;;;;;;;;;;;19.00;71.10;;;;;;5033348;28;20434;-72
2023/09/22 01:16:51;;;;;;;1.08;0.50;;;19.00;71.00;;;;;;5032241;28;20142;-72
2023/09/22 01:19:19;;;;;;;0.45;0.40;;;19.00;71.10;;;;;;5031091;28;20037;-73
2023/09/22 01:21:46;;;;;;;0.90;0.30;;;19.00;71.30;;;;;;5030657;28;20091;-71
2023/09/22 01:24:13;;;;;;;0.90;0.70;;;19.00;71.30;;;;;;5031250;28;20037;-71
2023/09/22 01:26:40;;;;;;;0.28;0.28;;;19.00;71.50;;;;;;5032069;28;20029;-72
2023/09/22 01:29:07;;;;;;;0.30;0.30;;;19.10;71.50;;;;;;5031095;28;20041;-71
2023/09/22 01:31:34;;;;;;;0.20;0.20;;;19.10;71.20;;;;;;5030203;28;20092;-71
2023/09/22 01:34:20;;;;;;;0.75;0.65;;;19.10;70.60;;;;;;5014761;28;20060;-72
2023/09/22 01:36:47;;;;;;;0.45;0.45;;;19.20;71.40;;;;;;5030757;28;20108;-71
2023/09/22 01:39:16;;;;;;;2.20;0.38;;;19.20;70.80;;;;;;5032505;28;20037;-72
2023/09/22 01:41:43;;;;;;;0.30;0.30;;;19.20;71.40;;;;;;5031424;28;20116;-72
2023/09/22 01:44:10;;;;;;;0.10;0.10;;;19.20;71.10;;;;;;5033705;28;20525;-72
2023/09/22 01:46:37;;;;;;;0.47;0.30;;;19.30;71.50;;;;;;5035570;28;20061;-71
2023/09/22 01:49:03;;;;;;;0.13;0.13;;;19.30;71.50;;;;;;5034989;28;20037;-72
2023/09/22 01:51:29;;;;;;;0.40;0.20;;;19.40;71.60;;;;;;5033704;28;20037;-73
2023/09/22 01:53:56;;;;;;;;;;;19.40;71.50;;;;;;5051983;28;20091;-73
2023/09/22 01:56:22;;;;;;;;;;;19.40;71.10;;;;;;5036030;28;19924;-72
2023/09/22 01:58:49;;;;;;;0.20;0.20;;;19.40;71.00;;;;;;5034756;28;19921;-73
2023/09/22 02:01:15;;;;;;;2.67;0.93;;;19.50;71.60;;;;;;5035022;28;20041;-72
2023/09/22 02:03:41;;;;;;;0.47;0.47;;;19.40;71.70;;;;;;5036032;28;20037;-72
2023/09/22 02:06:07;;;;;;;0.10;0.10;;;19.50;72.00;;;;;;5033980;28;20068;-71
2023/09/22 02:08:33;;;;;;;;;;;19.50;71.90;;;;;;5034950;28;20040;-71
2023/09/22 02:10:59;;;;;;;0.55;0.32;;;19.50;71.80;;;;;;5034597;28;19921;-71
2023/09/22 02:13:25;;;;;;;0.60;0.30;;;19.50;71.90;;;;;;5035827;28;20025;-72
2023/09/22 02:15:52;;;;;;;;;;;19.50;72.00;;;;;;5035596;28;20033;-72
2023/09/22 02:18:19;;;;;;;0.43;0.40;;;19.60;71.80;;;;;;5034464;28;20377;-72
2023/09/22 02:20:45;;;;;;;0.32;0.20;;;19.60;72.10;;;;;;5033113;28;20046;-71
2023/09/22 02:23:11;;;;;;;0.20;0.15;;;19.60;72.00;;;;;;5034248;28;20036;-72
2023/09/22 02:25:37;;;;;;;0.30;0.30;;;19.60;72.00;;;;;;5033623;28;20042;-72
2023/09/22 02:28:03;;;;;;;;;;;19.60;72.20;;;;;;5035975;28;20356;-71
2023/09/22 02:30:29;;;;;;;0.38;0.38;;;19.60;71.30;;;;;;5033004;28;20423;-72
2023/09/22 02:32:55;;;;;;;0.28;0.15;;;19.60;71.90;;;;;;5050702;28;20471;-72
2023/09/22 02:35:22;;;;;;;0.32;0.32;;;19.60;72.00;;;;;;5050163;28;20492;-72
2023/09/22 02:37:49;;;;;;;0.73;0.73;;;19.50;72.10;;;;;;5034025;28;20034;-71
2023/09/22 02:40:15;;;;;;;0.82;0.32;;;19.50;72.10;;;;;;5032754;28;20064;-72
2023/09/22 02:42:43;;;;;;;0.55;0.25;;;19.50;72.30;;;;;;5033785;28;20525;-71
2023/09/22 02:45:10;;;;;;;1.67;0.77;;;19.50;72.10;;;;;;5049698;28;20061;-71
2023/09/22 02:47:55;;;;;;;0.10;0.10;;;19.50;72.20;;;;;;5034033;28;20109;-72
2023/09/22 02:50:21;;;;;;;2.22;0.60;;;19.50;72.30;;;;;;5032581;28;20140;-72
2023/09/22 02:52:47;;;;;;;;;;;19.40;72.30;;;;;;5035463;28;20041;-71
2023/09/22 02:55:13;;;;;;;0.20;0.20;;;19.40;72.40;;;;;;5031935;28;20341;-71
2023/09/22 02:57:43;;;;;;;0.10;0.10;;;19.30;72.40;;;;;;5033703;28;20033;-71
2023/09/22 03:00:20;;;;;;;0.52;0.30;;;19.30;72.70;;;;;;5048831;28;20060;-72
2023/09/22 03:02:48;;;;;;;1.17;0.63;;;19.30;72.00;;;;;;5033355;28;20029;-73
2023/09/22 03:05:16;;;;;;;0.25;0.20;;;19.20;72.60;;;;;;5032892;28;20127;-72
2023/09/22 03:07:43;;;;;;;0.73;0.47;;;19.20;72.60;;;;;;5033541;28;20026;-72
2023/09/22 03:10:13;;;;;;;0.32;0.30;;;19.20;72.60;;;;;;5048787;28;20040;-71
2023/09/22 03:12:40;;;;;;;0.10;0.10;;;19.20;72.60;;;;;;5049633;28;20053;-71
2023/09/22 03:15:09;;;;;;;0.75;0.63;;;19.20;72.80;;;;;;5049455;28;20056;-71
2023/09/22 03:17:37;;;;;;;0.80;0.32;;;19.20;72.60;;;;;;5049644;28;20026;-72
2023/09/22 03:20:07;;;;;;;0.55;0.30;;;19.20;72.50;;;;;;5032921;28;20041;-72
2023/09/22 03:22:35;;;;;;;0.32;0.30;;;19.20;72.60;;;;;;5049120;28;20065;-71
2023/09/22 03:25:01;;;;;;;0.32;0.28;;;19.20;72.60;;;;;;5034184;28;20112;-71
2023/09/22 03:27:34;;;;;;;0.20;0.20;;;19.20;72.00;;;;;;5033879;28;20080;-72
2023/09/22 03:30:02;;;;;;;0.90;0.82;;;19.10;72.60;;;;;;5033068;28;20037;-72
2023/09/22 03:32:28;;;;;;;0.68;0.30;;;19.10;72.80;;;;;;5032048;28;20214;-72
2023/09/22 03:34:57;;;;;;;0.43;0.30;;;19.10;73.00;;;;;;5034076;28;20045;-72
2023/09/22 03:37:27;;;;;;;0.22;0.22;;;19.10;72.90;;;;;;5048868;28;20025;-72
2023/09/22 03:40:14;;;;;;;0.35;0.35;;;19.10;72.90;;;;;;5049257;28;20050;-71
2023/09/22 03:43:00;;;;;;;0.30;0.30;;;19.10;72.80;;;;;;5049312;28;20037;-72
2023/09/22 03:45:26;;;;;;;0.33;0.33;;;19.10;72.80;;;;;;5048713;28;20103;-71
2023/09/22 03:47:53;;;;;;;;;;;19.00;73.10;;;;;;5034437;28;20040;-71
2023/09/22 03:50:19;;;;;;;0.22;0.22;;;19.00;73.20;;;;;;5031464;28;19964;-71
2023/09/22 03:52:45;;;;;;;;;;;18.90;73.20;;;;;;5034401;28;20025;-71
2023/09/22 03:55:14;;;;;;;0.95;0.28;;;19.00;73.10;;;;;;5033335;28;19928;-71
2023/09/22 03:57:40;;;;;;;0.73;0.55;;;18.90;73.00;;;;;;5048878;28;20095;-72
2023/09/22 04:00:16;;;;;;;1.00;0.40;;;18.90;73.50;;;;;;5032829;28;20037;-73
2023/09/22 04:02:44;;;;;;;0.75;0.32;;;18.90;73.30;;;;;;5032567;28;20033;-71
2023/09/22 04:05:13;;;;;;;0.30;0.30;;;18.90;73.20;;;;;;5032972;28;20487;-72
2023/09/22 04:07:40;;;;;;;1.27;0.85;;;18.90;73.50;;;;;;5032353;28;20026;-72
2023/09/22 04:10:08;;;;;;;0.30;0.30;;;18.90;73.70;;;;;;5048068;28;20037;-72
2023/09/22 04:12:38;;;;;;;0.10;0.10;;;18.80;73.40;;;;;;5048588;28;20072;-72
2023/09/22 04:15:05;;;;;;;2.53;0.85;;;18.80;73.60;;;;;;5031904;28;20124;-71
2023/09/22 04:17:32;;;;;;;0.50;0.47;;;18.80;73.60;;;;;;5048351;28;20489;-72
2023/09/22 04:19:59;;;;;;;0.25;0.20;;;18.80;73.60;;;;;;5033348;28;20050;-72
2023/09/22 04:22:28;;;;;;;0.22;0.22;;;18.80;73.00;;;;;;5032363;28;20045;-71
2023/09/22 04:25:00;;;;;;;0.70;0.50;;;18.80;73.60;;;;;;5033140;28;20136;-71
2023/09/22 04:27:36;;;;;;;0.20;0.20;;;18.80;73.60;;;;;;5047593;28;20044;-71
2023/09/22 04:30:07;;;;;;;0.43;0.33;;;18.80;73.60;;;;;;5033227;28;20044;-72
2023/09/22 04:32:33;;;;;;;1.83;0.93;;;18.80;73.50;;;;;;5047781;28;20092;-71
2023/09/22 04:35:20;;;;;;;0.20;0.20;;;18.90;73.70;;;;;;5031907;28;20029;-72
2023/09/22 04:37:47;;;;;;;;;;;18.90;73.60;;;;;;5033652;28;20055;-72
2023/09/22 04:40:28;;;;;;;3.70;0.65;;;18.90;73.50;;;;;;5030778;28;19921;-71
2023/09/22 04:42:54;;;;;;;0.10;0.10;;;18.90;72.70;;;;;;5032007;28;20048;-71
2023/09/22 04:45:24;;;;;;;0.17;0.17;;;18.90;73.20;;;;;;5031048;28;20128;-72
2023/09/22 04:47:52;;;;;;;0.30;0.20;;;19.00;73.10;;;;;;5031728;28;20063;-71
2023/09/22 04:50:18;;;;;;;0.95;0.60;;;19.00;72.60;;;;;;5030543;28;20057;-71
2023/09/22 04:52:49;;;;;;;0.40;0.30;;;19.00;73.30;;;;;;5032865;28;20030;-72
2023/09/22 04:55:20;;;;;;;0.17;0.17;;;19.10;72.90;;;;;;5031172;28;20086;-72
2023/09/22 04:57:47;;;;;;;0.20;0.20;;;19.10;73.30;;;;;;5032879;28;20112;-72
2023/09/22 05:00:16;;;;;;;2.88;0.43;;;19.10;73.50;;;;;;5031689;28;20037;-72
2023/09/22 05:02:43;;;;;;;0.10;0.10;;;19.20;73.50;;;;;;5031585;28;20064;-72
2023/09/22 05:05:11;;;;;;;0.90;0.90;;;19.20;73.20;;;;;;5032076;28;20037;-72
2023/09/22 05:07:38;;;;;;;2.50;0.73;;;19.20;73.40;;;;;;5031525;28;20026;-73
2023/09/22 05:10:06;;;;;;;0.55;0.20;;;19.30;73.30;;;;;;5032066;28;20424;-72
2023/09/22 05:12:32;;;;;;;1.23;0.88;;;19.40;73.10;;;;;;5032403;28;20104;-71
2023/09/22 05:14:58;;;;;;;0.32;0.32;;;19.40;73.00;;;;;;5032446;28;20052;-71
2023/09/22 05:17:24;;;;;;;;;;;19.50;73.20;;;;;;5031471;28;20092;-72
2023/09/22 05:19:51;;;;;;;0.20;0.20;;;19.50;72.90;;;;;;5035323;28;19917;-71
2023/09/22 05:25:04;;;;;;;1.55;0.47;;;19.60;73.10;;;;;;5035566;28;20049;-71
2023/09/22 05:27:31;;;;;;;0.70;0.50;;;19.60;72.20;;;;;;5036206;28;20511;-72
2023/09/22 05:29:57;;;;;;;3.20;0.70;;;19.70;73.90;;;;;;5035258;28;20076;-71
2023/09/22 05:32:24;;;;;;;0.60;0.60;;;19.80;74.50;;;;;;5035746;28;20037;-71
2023/09/22 05:34:51;;;;;;;0.40;0.30;;;19.80;74.80;;;;;;5036846;28;20041;-72
2023/09/22 05:37:19;;;;;;;0.20;0.20;;;19.90;75.00;;;;;;5051400;28;20029;-72
2023/09/22 05:39:45;;;;;;;0.88;0.73;;;19.90;74.30;;;;;;5036092;28;20099;-72
2023/09/22 05:42:11;;;;;;;;;;;19.90;74.90;;;;;;5018071;28;20033;-72
2023/09/22 05:44:38;;;;;;;0.70;0.70;;;20.00;75.50;;;;;;5036598;28;19921;-72
2023/09/22 05:47:04;;;;;;;0.40;0.35;;;20.00;74.60;;;;;;5034440;28;20037;-72
2023/09/22 05:49:30;;;;;;;2.00;1.05;;;20.00;74.10;;;;;;5034936;28;20040;-71
2023/09/22 05:51:56;;;;;;;;;;;20.10;73.90;;;;;;5034541;28;20038;-71
2023/09/22 05:54:22;;;;;;;1.30;0.73;;;20.10;74.10;;;;;;5036318;28;19928;-72
2023/09/22 05:56:49;;;;;;;0.77;0.52;;;20.20;73.30;;;;;;5034459;28;20029;-72
2023/09/22 05:59:14;;;;;;;;;;;20.30;73.00;;;;;;5036739;28;20037;-72
2023/09/22 06:01:41;;;;;;;0.50;0.50;;;20.30;72.90;;;;;;5034973;28;19924;-71
2023/09/22 06:04:09;;;;;;;;;;;20.40;72.20;;;;;;5035224;28;20446;-71
2023/09/22 06:06:35;;;;;;;0.40;0.40;;;20.50;72.40;;;;;;5032568;28;19976;-71
2023/09/22 06:09:03;;;;;;;0.10;0.10;;;20.50;71.30;;;;;;5028813;28;20505;-72
2023/09/22 06:11:30;;;;;;;0.20;0.20;;;20.60;71.70;;;;;;5028427;28;20394;-71
2023/09/22 06:13:56;;;;;;;1.08;0.95;;;20.60;71.80;;;;;;5017578;28;20110;-72
2023/09/22 06:16:24;;;;;;;;;;;20.60;71.70;;;;;;5035397;28;20039;-72
2023/09/22 06:18:50;;;;;;;0.95;0.47;;;20.70;71.90;;;;;;5035607;28;19921;-71
2023/09/22 06:21:16;;;;;;;;;;;20.70;71.40;;;;;;5033568;28;20044;-72
2023/09/22 06:23:42;;;;;;;1.48;0.65;;;20.70;71.60;;;;;;5035550;28;19917;-72
2023/09/22 06:26:10;;;;;;;;;;;20.80;71.40;;;;;;5035193;28;20048;-71
2023/09/22 06:28:40;;;;;;;1.73;0.63;;;20.80;71.40;;;;;;5033790;28;19917;-71
2023/09/22 06:31:06;;;;;;;0.55;0.40;;;20.80;71.10;;;;;;5015860;28;20129;-72
2023/09/22 06:33:33;;;;;;;1.65;1.00;;;20.80;70.90;;;;;;5039917;28;20061;-72
2023/09/22 06:36:03;;;;;;;3.00;1.38;;;20.90;71.10;;;;;;5021088;28;20084;-72
2023/09/22 06:38:33;;;;;;;1.10;0.95;;;20.90;70.80;;;;;;5033624;28;20140;-71
2023/09/22 06:41:00;;;;;;;0.25;0.25;;;20.90;70.80;;;;;;5025147;28;20041;-71
2023/09/22 06:43:27;;;;;;;0.80;0.52;;;21.10;70.80;;;;;;5010970;28;20109;-72
2023/09/22 06:45:58;;;;;;;1.02;0.57;;;21.10;70.60;;;;;;5011871;28;20034;-72
2023/09/22 06:48:29;;;;;;;1.25;0.90;;;21.20;70.50;;;;;;5013276;28;20038;-71
2023/09/22 06:51:00;;;;;;;1.85;1.00;;;21.20;70.30;;;;;;5012567;28;20045;-72
2023/09/22 06:53:29;;;;;;;0.20;0.20;;;21.30;70.10;;;;;;5013346;28;20038;-72
2023/09/22 06:56:14;;;;;;;5.65;1.15;;;21.40;69.90;;;;;;5013058;28;20491;-71
2023/09/22 06:58:41;;;;;;;1.52;0.88;;;21.50;69.80;;;;;;5014756;28;20042;-71
2023/09/22 07:01:25;;;;;;;0.80;0.60;;;21.60;69.50;;;;;;5012338;28;20045;-71
2023/09/22 07:03:52;;;;;;;0.30;0.20;;;21.70;69.90;;;;;;5002149;28;20487;-72
2023/09/22 07:06:19;;;;;;;;;;;21.70;70.40;;;;;;4994976;28;20040;-72
2023/09/22 07:08:46;;;;;;;0.77;0.70;;;21.80;69.70;;;;;;4993209;28;19921;-72
2023/09/22 07:11:13;;;;;;;0.47;0.32;;;21.80;68.80;;;;;;5002073;28;20041;-71
2023/09/22 07:13:41;;;;;;;0.17;0.17;;;21.80;68.50;;;;;;5013175;28;20038;-72
2023/09/22 07:16:07;;;;;;;0.22;0.22;;;21.80;69.00;;;;;;5013866;28;20041;-72
2023/09/22 07:18:33;;;;;;;24.55;1.30;;;21.90;68.30;;;;;;5013092;28;20121;-72
2023/09/22 07:21:00;;;;;;;;;;;21.80;68.90;;;;;;5013271;28;20523;-72
2023/09/22 07:23:27;;;;;;;0.20;0.20;;;21.90;69.10;;;;;;5012529;28;19964;-72
2023/09/22 07:26:12;;;;;;;0.32;0.32;;;21.90;68.50;;;;;;5028088;28;20041;-72
2023/09/22 07:28:39;;;;;;;0.85;0.38;;;21.90;68.70;;;;;;5013468;28;20042;-71
2023/09/22 07:31:30;;;;;;;0.77;0.70;;;21.90;68.40;;;;;;5028042;28;20038;-72
2023/09/22 07:33:57;;;;;;;0.80;0.68;;;22.00;68.60;;;;;;5012219;28;20164;-71
2023/09/22 07:36:23;;;;;;;1.60;0.90;;;22.00;68.30;;;;;;5028016;28;20030;-72
2023/09/22 07:38:49;;;;;;;0.80;0.60;;;22.00;68.50;;;;;;5013538;28;20042;-72
2023/09/22 07:41:16;;;;;;;1.17;0.90;;;22.10;68.60;;;;;;5010526;28;20149;-71
2023/09/22 07:43:42;;;;;;;0.38;0.35;;;22.10;68.60;;;;;;5012170;28;20056;-72
2023/09/22 07:46:08;;;;;;;;;;;22.20;68.50;;;;;;5018928;28;20037;-72
2023/09/22 07:48:37;;;;;;;0.30;0.30;;;22.40;68.30;;;;;;5031672;28;19921;-71
2023/09/22 07:51:04;;;;;;;1.95;1.30;;;22.80;67.10;;;;;;5030399;28;20033;-72
2023/09/22 07:53:31;;;;;;;0.20;0.20;;;23.60;65.80;;;;;;5032526;28;20047;-72
2023/09/22 07:56:01;;;;;;;0.55;0.35;;;24.60;62.70;;;;;;5031134;28;20493;-72
2023/09/22 07:58:29;;;;;;;0.45;0.30;;;25.20;61.20;;;;;;5031672;28;20064;-72
2023/09/22 08:00:55;;;;;;;0.43;0.28;;;25.70;60.20;;;;;;5030460;28;20041;-72
2023/09/22 08:03:21;;;;;;;0.30;0.30;;;26.30;58.20;;;;;;5024323;28;20034;-72
2023/09/22 08:05:49;;;;;;;2.53;1.23;;;26.80;57.30;;;;;;5029873;28;20044;-72
2023/09/22 08:08:16;;;;;;;0.70;0.45;;;27.30;56.30;;;;;;5032407;28;20107;-72
2023/09/22 08:10:44;;;;;;;0.40;0.40;;;27.90;54.30;;;;;;5030083;28;20029;-72
2023/09/22 08:13:10;;;;;;;0.93;0.70;;;28.70;52.00;;;;;;5031055;28;20033;-72
2023/09/22 08:15:37;;;;;;;0.20;0.20;;;29.60;50.00;;;;;;5043798;28;20122;-72
2023/09/22 08:18:07;;;;;;;0.77;0.68;;;30.20;48.30;;;;;;5030964;28;20483;-72
2023/09/22 08:20:34;;;;;;;0.40;0.40;;;30.50;46.20;;;;;;5040294;28;20494;-72
2023/09/22 08:23:01;;;;;;;0.20;0.20;;;30.40;43.30;;;;;;5052091;28;20037;-72
2023/09/22 08:25:27;;;;;;;1.35;1.02;;;29.80;44.40;;;;;;5033471;28;20040;-72
2023/09/22 08:27:54;;;;;;;0.82;0.50;;;29.60;45.30;;;;;;5051963;28;20049;-72
2023/09/22 08:30:20;;;;;;;0.40;0.30;;;29.40;45.70;;;;;;5049499;28;20033;-72
2023/09/22 08:32:47;;;;;;;0.60;0.60;;;29.50;45.50;;;;;;5040452;28;20431;-72
2023/09/22 08:35:15;;;;;;;2.38;0.90;;;29.70;44.70;;;;;;5031334;28;20033;-73
2023/09/22 08:37:43;;;;;;;4.13;1.13;;;30.50;43.70;;;;;;5030806;28;20076;-72
2023/09/22 08:40:14;;;;;;;0.20;0.20;;;31.20;40.80;;;;;;5029816;28;20071;-72
2023/09/22 08:42:45;;;;;;;1.17;0.75;;;31.50;40.30;;;;;;5030817;28;20029;-72
2023/09/22 08:45:13;;;;;;;0.30;0.30;;;31.50;40.40;;;;;;5030153;28;20061;-72
2023/09/22 08:47:40;;;;;;;0.98;0.65;;;31.60;40.10;;;;;;5031682;28;20041;-72
2023/09/22 08:50:27;;;;;;;0.30;0.25;;;31.80;39.20;;;;;;5029621;28;20079;-72
2023/09/22 08:52:53;;;;;;;3.45;0.90;;;32.10;38.60;;;;;;5029513;28;20504;-72
2023/09/22 08:55:21;;;;;;;0.88;0.85;;;32.20;37.80;;;;;;5030051;28;20453;-72
2023/09/22 08:57:49;;;;;;;0.30;0.30;;;31.50;38.60;;;;;;5030388;28;20076;-72
2023/09/22 09:00:35;;;;;;;1.38;0.47;;;31.00;38.40;;;;;;5029177;28;20041;-72
2023/09/22 09:03:20;;;;;;;1.58;1.02;;;30.60;39.20;;;;;;5026849;28;20061;-72
2023/09/22 09:05:47;;;;;;;1.58;0.80;;;30.40;39.20;;;;;;5011236;28;20065;-72
2023/09/22 09:08:34;;;;;;;2.75;0.43;;;30.10;39.80;;;;;;5027210;28;20116;-72
2023/09/22 09:11:05;;;;;;;;;;;29.90;40.60;;;;;;5011461;28;20042;-72
2023/09/22 09:13:32;;;;;;;1.38;0.77;;;29.80;40.60;;;;;;5010608;28;19917;-72
2023/09/22 09:16:01;;;;;;;0.50;0.50;;;29.70;40.50;;;;;;5010280;28;20045;-72
2023/09/22 09:18:29;;;;;;;7.50;1.00;;;29.70;41.00;;;;;;5011928;28;20038;-72
2023/09/22 09:21:17;;;;;;;0.82;0.47;;;29.60;41.00;;;;;;5009509;28;20065;-72
2023/09/22 09:24:02;;;;;;;0.75;0.75;;;29.50;41.10;;;;;;5012024;28;20038;-72
2023/09/22 09:26:46;;;;;;;0.38;0.38;;;29.40;41.50;;;;;;5011266;28;20403;-72
2023/09/22 09:29:12;;;;;;;0.85;0.55;;;29.40;41.90;;;;;;5026746;28;20027;-72
2023/09/22 09:32:00;;;;;;;2.80;1.48;;;29.50;41.40;;;;;;4993224;28;20038;-72
2023/09/22 09:34:45;;;;;;;5.22;2.17;;;29.80;40.30;;;;;;5011767;28;20026;-72
2023/09/22 09:37:14;;;;;;;3.17;1.33;;;29.90;40.60;;;;;;5010034;28;20064;-71
2023/09/22 09:39:59;;;;;;;21.52;18.58;;;29.80;40.10;;;;;;5026563;28;20048;-71
2023/09/22 09:42:26;;;;;;;20.25;12.10;;;29.60;41.10;;;;;;5009469;28;20084;-72
2023/09/22 09:44:56;;;;;;;14.18;6.90;;;29.60;41.10;;;;;;5019251;28;20061;-72
2023/09/22 09:47:44;;;;;;;14.50;9.35;;;29.70;41.20;;;;;;5029653;28;20045;-72
2023/09/22 09:50:12;;;;;;;2.35;1.45;;;29.70;40.80;;;;;;5029096;28;20069;-72
2023/09/22 09:52:52;;;;;;;7.70;1.40;;;29.80;40.90;;;;;;5013866;28;20103;-72
2023/09/22 09:55:20;;;;;;;20.70;7.88;;;30.10;40.80;;;;;;5029382;28;20052;-72
2023/09/22 09:57:46;;;;;;;2.90;2.58;;;30.30;40.30;;;;;;5031234;28;20057;-72
2023/09/22 10:00:19;;;;;;;0.80;0.73;;;30.40;40.20;;;;;;5028818;28;20078;-73
2023/09/22 10:02:47;;;;;;;2.50;0.95;;;30.40;40.40;;;;;;5029820;28;20040;-71
2023/09/22 10:05:33;;;;;;;2.20;1.58;;;30.50;39.50;;;;;;5031822;28;20126;-72
2023/09/22 10:08:00;;;;;;;1.83;1.50;;;30.60;39.70;;;;;;5033562;28;20088;-72
2023/09/22 10:10:28;;;;;;;1.08;0.77;;;30.60;40.30;;;;;;5032404;28;20125;-72
2023/09/22 10:12:55;;;;;;;0.80;0.43;;;30.60;40.90;;;;;;5034662;28;20041;-72
2023/09/22 10:15:53;;;;;;;2.00;0.85;;;30.70;39.30;;;;;;5032788;28;20025;-72
2023/09/22 10:18:21;;;;;;;1.15;0.45;;;31.00;39.80;;;;;;5033013;28;20048;-72
2023/09/22 10:20:51;;;;;;;1.17;0.93;;;30.90;38.50;;;;;;5032191;28;20422;-72
2023/09/22 10:23:27;;;;;;;5.07;2.35;;;30.80;38.20;;;;;;5034500;28;20037;-72
2023/09/22 10:26:15;;;;;;;0.87;0.40;;;31.00;39.70;;;;;;5032915;28;20088;-72
2023/09/22 10:28:41;;;;;;;1.08;0.65;;;31.30;38.90;;;;;;5033180;28;20037;-72
2023/09/22 10:31:08;;;;;;;0.90;0.80;;;31.40;38.70;;;;;;5032138;28;20124;-72
2023/09/22 10:33:35;;;;;;;6.68;2.45;;;31.30;38.00;;;;;;5034541;28;20482;-72
2023/09/22 10:36:04;;;;;;;11.15;6.20;;;31.20;38.90;;;;;;5033936;28;20030;-72
2023/09/22 10:39:07;;;;;;;0.73;0.52;;;31.00;38.20;;;;;;5033018;28;20120;-72
2023/09/22 10:41:35;;;;;;;0.43;0.43;;;30.50;39.00;;;;;;5033223;28;20091;-72
2023/09/22 10:44:02;;;;;;;2.20;1.38;;;30.20;40.80;;;;;;5034408;28;20036;-72
2023/09/22 10:46:28;;;;;;;3.75;3.22;;;30.00;40.60;;;;;;5033360;28;20033;-72
2023/09/22 10:48:54;;;;;;;8.52;4.03;;;30.00;41.30;;;;;;5032615;28;20174;-72
2023/09/22 10:51:22;;;;;;;0.77;0.50;;;29.90;40.60;;;;;;5033035;28;20438;-72
2023/09/22 10:54:07;;;;;;;2.72;1.88;;;29.90;41.30;;;;;;5033785;28;20497;-72
2023/09/22 10:56:36;;;;;;;8.05;0.63;;;30.10;41.90;;;;;;5033436;28;20030;-72
2023/09/22 10:59:02;;;;;;;0.50;0.40;;;30.10;41.50;;;;;;5025036;28;20073;-71
2023/09/22 11:01:28;;;;;;;0.20;0.20;;;30.10;42.00;;;;;;4995596;28;20084;-72
2023/09/22 11:03:55;;;;;;;0.93;0.50;;;30.30;41.00;;;;;;5014223;28;20491;-71
2023/09/22 11:06:21;;;;;;;0.50;0.50;;;30.20;40.30;;;;;;5014241;28;20052;-72
2023/09/22 11:08:54;;;;;;;0.70;0.32;;;30.20;40.90;;;;;;5032419;28;20037;-72
2023/09/22 11:11:20;;;;;;;1.10;0.77;;;30.10;40.50;;;;;;5032888;28;20041;-72
2023/09/22 11:14:07;;;;;;;0.90;0.73;;;30.20;40.90;;;;;;5033524;28;20033;-72
2023/09/22 11:16:33;;;;;;;1.05;0.80;;;30.10;41.30;;;;;;5032065;28;20025;-72
2023/09/22 11:19:18;;;;;;;3.65;0.90;;;30.00;41.30;;;;;;5032296;28;20148;-72
2023/09/22 11:21:46;;;;;;;0.43;0.43;;;29.90;41.00;;;;;;5031292;28;20091;-72
2023/09/22 11:24:12;;;;;;;0.75;0.73;;;29.90;41.80;;;;;;5033644;28;20025;-72
2023/09/22 11:27:04;;;;;;;1.13;0.60;;;29.80;42.30;;;;;;5031454;28;20145;-72
2023/09/22 11:29:31;;;;;;;1.85;0.90;;;29.70;41.80;;;;;;5033077;28;20099;-72
2023/09/22 11:31:57;;;;;;;0.70;0.63;;;29.70;41.10;;;;;;5016934;28;20121;-72
2023/09/22 11:34:24;;;;;;;0.75;0.43;;;29.70;41.60;;;;;;5012168;28;20057;-71
2023/09/22 11:36:52;;;;;;;0.88;0.63;;;29.60;41.90;;;;;;5012938;28;20030;-72
2023/09/22 11:39:37;;;;;;;1.55;1.10;;;29.40;42.50;;;;;;4995692;28;20399;-72
2023/09/22 11:42:03;;;;;;;6.80;1.25;;;29.30;43.10;;;;;;5012623;28;20113;-72
2023/09/22 11:44:30;;;;;;;0.82;0.75;;;29.20;43.30;;;;;;5012047;28;20053;-72
2023/09/22 11:46:56;;;;;;;2.92;0.75;;;29.10;44.40;;;;;;5025460;28;20120;-72
2023/09/22 11:49:22;;;;;;;0.77;0.60;;;29.10;45.40;;;;;;5015362;28;20658;-72
2023/09/22 11:52:07;;;;;;;11.88;1.25;;;29.00;45.60;;;;;;5028274;28;20038;-72
2023/09/22 11:54:35;;;;;;;0.40;0.40;;;29.20;45.10;;;;;;5011378;28;20042;-72
2023/09/22 11:57:03;;;;;;;0.55;0.50;;;29.40;44.80;;;;;;5027710;28;20097;-72
2023/09/22 11:59:40;;;;;;;0.52;0.50;;;29.40;44.40;;;;;;5012163;28;20170;-72
2023/09/22 12:02:06;;;;;;;0.93;0.75;;;29.30;44.80;;;;;;5012195;28;20029;-72
2023/09/22 12:04:36;;;;;;;1.10;0.80;;;29.20;44.90;;;;;;5047742;28;20061;-72
2023/09/22 12:07:03;;;;;;;0.60;0.60;;;29.20;45.70;;;;;;5030797;28;20046;-72
2023/09/22 12:09:29;;;;;;;6.72;2.80;;;29.20;46.50;;;;;;5031228;28;20048;-72
2023/09/22 12:11:55;;;;;;;2.63;0.95;;;29.10;46.50;;;;;;5030193;28;20506;-72
2023/09/22 12:14:23;;;;;;;1.27;0.50;;;29.10;46.30;;;;;;5031070;28;20038;-71
2023/09/22 12:16:51;;;;;;;2.53;0.32;;;29.20;47.50;;;;;;5032040;28;20036;-72
2023/09/22 12:19:19;;;;;;;0.60;0.60;;;29.00;47.10;;;;;;5030818;28;20045;-72
2023/09/22 12:21:45;;;;;;;0.28;0.28;;;29.00;47.50;;;;;;5031514;28;20037;-72
2023/09/22 12:24:11;;;;;;;0.60;0.57;;;29.00;47.70;;;;;;5032463;28;20037;-72
2023/09/22 12:26:37;;;;;;;0.90;0.73;;;29.00;47.80;;;;;;5031355;28;20037;-72
2023/09/22 12:29:05;;;;;;;1.00;0.75;;;29.00;47.40;;;;;;5031055;28;20045;-72
2023/09/22 12:31:33;;;;;;;1.17;0.70;;;29.20;46.30;;;;;;5046196;28;20045;-72
2023/09/22 12:34:00;;;;;;;1.13;0.70;;;29.20;45.50;;;;;;5029569;28;20642;-72
2023/09/22 12:36:26;;;;;;;0.63;0.60;;;29.50;45.60;;;;;;5029755;28;20486;-72
2023/09/22 12:38:53;;;;;;;2.83;1.60;;;30.00;44.30;;;;;;5030324;28;20045;-72
2023/09/22 12:41:19;;;;;;;1.95;0.90;;;31.00;42.10;;;;;;5030618;28;20099;-72
2023/09/22 12:43:45;;;;;;;0.32;0.32;;;31.20;41.70;;;;;;5047154;28;20100;-71
2023/09/22 12:46:13;;;;;;;0.90;0.88;;;31.10;42.00;;;;;;5030168;28;20057;-72
2023/09/22 12:48:42;;;;;;;2.13;1.48;;;31.00;41.60;;;;;;5030682;28;20091;-72
2023/09/22 12:51:11;;;;;;;1.75;1.40;;;30.90;40.80;;;;;;5030954;28;20040;-71
2023/09/22 12:53:37;;;;;;;4.10;1.25;;;30.90;40.50;;;;;;5030445;28;20044;-72
2023/09/22 12:56:04;;;;;;;0.70;0.60;;;30.80;41.20;;;;;;5031287;28;20072;-72
2023/09/22 12:58:30;;;;;;;0.75;0.52;;;30.60;41.70;;;;;;5030364;28;20478;-72
2023/09/22 13:01:14;;;;;;;1.98;0.60;;;30.40;43.00;;;;;;5030949;28;20045;-72
2023/09/22 13:03:40;;;;;;;0.73;0.52;;;30.30;44.00;;;;;;5031987;28;20037;-72
2023/09/22 13:06:07;;;;;;;1.50;1.13;;;30.20;43.90;;;;;;5046471;28;20048;-72